SAS7316 LGSR-ENVA
Flight info
| Callsign | SAS7316 |
|---|---|
| Flight time | N/A |
| Altitude | 35000 |
| Route | IRBEG UJ62 RIPLI DCT NEVRA DCT KOROS DCT ATFIR/N0439F340 DCT SODGO/N0446F360 DCT KEKED DCT NUBLI DCT PENOR DCT VEVOD |
| Aircraft | A320/M-SDE3FGHIRWY/LB1 |
Departure
| Time | 2026-04-24 13:38 |
|---|---|
| Airport | Santorini International Airport (LGSR) |
Arrival
| Time | N/A |
|---|---|
| Airport | Trondheim Airport, Værnes (ENVA) |
| Time | Latitude | Longitude | Altitude | Speed | Heading |
|---|---|---|---|---|---|
| 2026-04-24 13:07 | 36.40165 | 25.47465 | 110 ft | 0 kts | 245° |
| 2026-04-24 13:30 | 36.40170 | 25.47479 | 109 ft | 4 kts | 223° |
| 2026-04-24 13:30 | 36.40191 | 25.47485 | 109 ft | 4 kts | 160° |
| 2026-04-24 13:30 | 36.40197 | 25.47482 | 110 ft | 0 kts | 159° |
| 2026-04-24 13:32 | 36.40196 | 25.47482 | 110 ft | 1 kts | 159° |
| 2026-04-24 13:32 | 36.40174 | 25.47498 | 109 ft | 8 kts | 144° |
| 2026-04-24 13:32 | 36.40131 | 25.47564 | 108 ft | 11 kts | 105° |
| 2026-04-24 13:33 | 36.40118 | 25.47648 | 106 ft | 11 kts | 142° |
| 2026-04-24 13:33 | 36.40039 | 25.47690 | 104 ft | 14 kts | 160° |
| 2026-04-24 13:33 | 36.39942 | 25.47734 | 100 ft | 16 kts | 159° |
| 2026-04-24 13:33 | 36.39826 | 25.47792 | 96 ft | 19 kts | 159° |
| 2026-04-24 13:34 | 36.39693 | 25.47853 | 90 ft | 21 kts | 160° |
| 2026-04-24 13:34 | 36.39558 | 25.47916 | 88 ft | 19 kts | 158° |
| 2026-04-24 13:34 | 36.39454 | 25.47965 | 85 ft | 15 kts | 159° |
| 2026-04-24 13:34 | 36.39362 | 25.48008 | 70 ft | 14 kts | 159° |
| 2026-04-24 13:35 | 36.39271 | 25.48051 | 67 ft | 11 kts | 159° |
| 2026-04-24 13:35 | 36.39203 | 25.48082 | 66 ft | 12 kts | 159° |
| 2026-04-24 13:35 | 36.39126 | 25.48118 | 60 ft | 6 kts | 159° |
| 2026-04-24 13:35 | 36.39073 | 25.48143 | 67 ft | 8 kts | 159° |
| 2026-04-24 13:36 | 36.39028 | 25.48165 | 63 ft | 8 kts | 157° |
| 2026-04-24 13:36 | 36.39007 | 25.48235 | 61 ft | 11 kts | 74° |
| 2026-04-24 13:36 | 36.39026 | 25.48316 | 64 ft | 3 kts | 68° |
| 2026-04-24 13:36 | 36.39043 | 25.48321 | 63 ft | 2 kts | 1° |
| 2026-04-24 13:37 | 36.39049 | 25.48318 | 63 ft | 0 kts | 343° |
| 2026-04-24 13:37 | 36.39078 | 25.48307 | 61 ft | 25 kts | 341° |
| 2026-04-24 13:37 | 36.39457 | 25.48132 | 73 ft | 87 kts | 339° |
| 2026-04-24 13:37 | 36.40181 | 25.47794 | 110 ft | 133 kts | 339° |
| 2026-04-24 13:38 | 36.41130 | 25.47346 | 331 ft | 150 kts | 340° |
| 2026-04-24 13:38 | 36.42104 | 25.46850 | 874 ft | 153 kts | 340° |
| 2026-04-24 13:38 | 36.43174 | 25.46590 | 1315 ft | 162 kts | 360° |
| 2026-04-24 13:38 | 36.44337 | 25.46609 | 1667 ft | 173 kts | 3° |
| 2026-04-24 13:39 | 36.45567 | 25.46609 | 2095 ft | 181 kts | 359° |
| 2026-04-24 13:39 | 36.46862 | 25.46523 | 2515 ft | 194 kts | 357° |
| 2026-04-24 13:39 | 36.48278 | 25.46384 | 2867 ft | 214 kts | 355° |
| 2026-04-24 13:39 | 36.49823 | 25.46238 | 3377 ft | 230 kts | 357° |
| 2026-04-24 13:40 | 36.51488 | 25.46104 | 3906 ft | 248 kts | 356° |
| 2026-04-24 13:40 | 36.53235 | 25.45931 | 4686 ft | 254 kts | 355° |
| 2026-04-24 13:40 | 36.55015 | 25.45740 | 5465 ft | 259 kts | 355° |
| 2026-04-24 13:40 | 36.56830 | 25.45537 | 6197 ft | 265 kts | 355° |
| 2026-04-24 13:41 | 36.58683 | 25.45327 | 6902 ft | 270 kts | 355° |
| 2026-04-24 13:41 | 36.60568 | 25.45112 | 7620 ft | 274 kts | 355° |
| 2026-04-24 13:41 | 36.62488 | 25.44893 | 8331 ft | 279 kts | 355° |
| 2026-04-24 13:41 | 36.64440 | 25.44672 | 9039 ft | 284 kts | 355° |
| 2026-04-24 13:42 | 36.66420 | 25.44450 | 9744 ft | 288 kts | 355° |
| 2026-04-24 13:42 | 36.68441 | 25.44225 | 10317 ft | 297 kts | 355° |
| 2026-04-24 13:42 | 36.70578 | 25.43987 | 10454 ft | 320 kts | 354° |
| 2026-04-24 13:42 | 36.72854 | 25.43731 | 10739 ft | 335 kts | 354° |
| 2026-04-24 13:43 | 36.75197 | 25.43465 | 11304 ft | 340 kts | 354° |
| 2026-04-24 13:43 | 36.77566 | 25.43195 | 11934 ft | 343 kts | 353° |
| 2026-04-24 13:43 | 36.79955 | 25.42926 | 12573 ft | 346 kts | 353° |
| 2026-04-24 13:43 | 36.82361 | 25.42650 | 13223 ft | 349 kts | 352° |
| 2026-04-24 13:44 | 36.84789 | 25.42342 | 13908 ft | 352 kts | 352° |
| 2026-04-24 13:44 | 36.87239 | 25.42016 | 14441 ft | 356 kts | 352° |
| 2026-04-24 13:44 | 36.89716 | 25.41680 | 14944 ft | 360 kts | 351° |
| 2026-04-24 13:44 | 36.92222 | 25.41339 | 15444 ft | 365 kts | 351° |
| 2026-04-24 13:45 | 36.94760 | 25.40994 | 15938 ft | 369 kts | 351° |
| 2026-04-24 13:45 | 36.97324 | 25.40650 | 16444 ft | 373 kts | 351° |
| 2026-04-24 13:45 | 36.99918 | 25.40307 | 16960 ft | 377 kts | 351° |
| 2026-04-24 13:45 | 37.02540 | 25.39961 | 17474 ft | 381 kts | 351° |
| 2026-04-24 13:46 | 37.05192 | 25.39612 | 17989 ft | 385 kts | 350° |
| 2026-04-24 13:46 | 37.07873 | 25.39260 | 18482 ft | 389 kts | 350° |
| 2026-04-24 13:46 | 37.10543 | 25.38909 | 18948 ft | 393 kts | 350° |
| 2026-04-24 13:46 | 37.13309 | 25.38545 | 19439 ft | 396 kts | 349° |
| 2026-04-24 13:47 | 37.16022 | 25.38186 | 19922 ft | 399 kts | 349° |
| 2026-04-24 13:47 | 37.18831 | 25.37811 | 20415 ft | 402 kts | 349° |
| 2026-04-24 13:47 | 37.21619 | 25.37400 | 20888 ft | 405 kts | 348° |
| 2026-04-24 13:47 | 37.24417 | 25.36895 | 21354 ft | 406 kts | 343° |
| 2026-04-24 13:48 | 37.27112 | 25.35906 | 21809 ft | 402 kts | 333° |
| 2026-04-24 13:48 | 37.29613 | 25.34374 | 22267 ft | 399 kts | 323° |
| 2026-04-24 13:48 | 37.31911 | 25.32429 | 22732 ft | 399 kts | 319° |
| 2026-04-24 13:48 | 37.34186 | 25.30408 | 23199 ft | 401 kts | 319° |
| 2026-04-24 13:49 | 37.36473 | 25.28382 | 23629 ft | 404 kts | 319° |
| 2026-04-24 13:49 | 37.38780 | 25.26342 | 24016 ft | 406 kts | 319° |
| 2026-04-24 13:49 | 37.41093 | 25.24291 | 24404 ft | 408 kts | 319° |
| 2026-04-24 13:49 | 37.43414 | 25.22222 | 24782 ft | 410 kts | 319° |
| 2026-04-24 13:50 | 37.45745 | 25.20142 | 25154 ft | 412 kts | 319° |
| 2026-04-24 13:50 | 37.48089 | 25.18051 | 25515 ft | 414 kts | 319° |
| 2026-04-24 13:50 | 37.50441 | 25.15954 | 25868 ft | 415 kts | 319° |
| 2026-04-24 13:50 | 37.52802 | 25.13847 | 26232 ft | 417 kts | 319° |
| 2026-04-24 13:51 | 37.55177 | 25.11727 | 26572 ft | 419 kts | 319° |
| 2026-04-24 13:51 | 37.57559 | 25.09597 | 26910 ft | 421 kts | 319° |
| 2026-04-24 13:51 | 37.59958 | 25.07450 | 27255 ft | 423 kts | 319° |
| 2026-04-24 13:51 | 37.62361 | 25.05296 | 27605 ft | 425 kts | 319° |
| 2026-04-24 13:52 | 37.64778 | 25.03128 | 27939 ft | 427 kts | 319° |
| 2026-04-24 13:52 | 37.67210 | 25.00946 | 28256 ft | 430 kts | 319° |
| 2026-04-24 13:52 | 37.69619 | 24.98784 | 28549 ft | 432 kts | 319° |
| 2026-04-24 13:52 | 37.72071 | 24.96580 | 28851 ft | 434 kts | 319° |
| 2026-04-24 13:53 | 37.74529 | 24.94366 | 29253 ft | 433 kts | 320° |
| 2026-04-24 13:53 | 37.76979 | 24.92159 | 29690 ft | 433 kts | 320° |
| 2026-04-24 13:53 | 37.79431 | 24.89951 | 30115 ft | 432 kts | 320° |
| 2026-04-24 13:53 | 37.81879 | 24.87745 | 30470 ft | 432 kts | 321° |
| 2026-04-24 13:54 | 37.84326 | 24.85539 | 30847 ft | 432 kts | 321° |
| 2026-04-24 13:54 | 37.86766 | 24.83336 | 31228 ft | 431 kts | 321° |
| 2026-04-24 13:54 | 37.89236 | 24.81103 | 31617 ft | 430 kts | 322° |
| 2026-04-24 13:54 | 37.91669 | 24.78901 | 32010 ft | 429 kts | 322° |
| 2026-04-24 13:55 | 37.94095 | 24.76708 | 32407 ft | 428 kts | 322° |
| 2026-04-24 13:55 | 37.96519 | 24.74515 | 32803 ft | 427 kts | 322° |
| 2026-04-24 13:55 | 37.98937 | 24.72325 | 33202 ft | 426 kts | 322° |
| 2026-04-24 13:55 | 38.01344 | 24.70140 | 33603 ft | 425 kts | 322° |
| 2026-04-24 13:56 | 38.03743 | 24.67958 | 33930 ft | 425 kts | 323° |
| 2026-04-24 13:56 | 38.06149 | 24.65770 | 34008 ft | 425 kts | 323° |
| 2026-04-24 13:56 | 38.10927 | 24.61427 | 34019 ft | 425 kts | 325° |
| 2026-04-24 13:57 | 38.13501 | 24.59594 | 34015 ft | 425 kts | 337° |
| 2026-04-24 13:57 | 38.16310 | 24.58425 | 34017 ft | 426 kts | 348° |
| 2026-04-24 13:57 | 38.19246 | 24.57961 | 34018 ft | 425 kts | 359° |
| 2026-04-24 13:57 | 38.22194 | 24.58210 | 34015 ft | 425 kts | 10° |
| 2026-04-24 13:58 | 38.27883 | 24.60184 | 34018 ft | 424 kts | 17° |
| 2026-04-24 13:58 | 38.33519 | 24.62323 | 34016 ft | 422 kts | 17° |
| 2026-04-24 13:59 | 38.39175 | 24.64467 | 34014 ft | 420 kts | 17° |
| 2026-04-24 13:59 | 38.44768 | 24.66587 | 34012 ft | 418 kts | 17° |
| 2026-04-24 14:00 | 38.50352 | 24.68700 | 34013 ft | 420 kts | 17° |
| 2026-04-24 14:00 | 38.55963 | 24.70845 | 34015 ft | 421 kts | 18° |
| 2026-04-24 14:01 | 38.60631 | 24.72632 | 34013 ft | 421 kts | 17° |
| 2026-04-24 14:01 | 38.66251 | 24.74771 | 34018 ft | 422 kts | 17° |
| 2026-04-24 14:02 | 38.71871 | 24.76921 | 34020 ft | 422 kts | 17° |
| 2026-04-24 14:02 | 38.78409 | 24.79424 | 34018 ft | 422 kts | 17° |
| 2026-04-24 14:03 | 38.83119 | 24.81231 | 34016 ft | 422 kts | 17° |
| 2026-04-24 14:03 | 38.88741 | 24.83395 | 34015 ft | 422 kts | 17° |
| 2026-04-24 14:04 | 38.94364 | 24.85557 | 34016 ft | 422 kts | 17° |
| 2026-04-24 14:04 | 38.99984 | 24.87720 | 34018 ft | 421 kts | 17° |
| 2026-04-24 14:05 | 39.05605 | 24.89839 | 34018 ft | 421 kts | 13° |
| 2026-04-24 14:05 | 39.11421 | 24.90289 | 34017 ft | 422 kts | 353° |
| 2026-04-24 14:06 | 39.17071 | 24.88211 | 34018 ft | 424 kts | 341° |
| 2026-04-24 14:06 | 39.22601 | 24.85532 | 34022 ft | 424 kts | 341° |
| 2026-04-24 14:07 | 39.28131 | 24.82869 | 34022 ft | 424 kts | 341° |
| 2026-04-24 14:07 | 39.33669 | 24.80210 | 34022 ft | 424 kts | 341° |
| 2026-04-24 14:08 | 39.39201 | 24.77554 | 34024 ft | 424 kts | 341° |
| 2026-04-24 14:08 | 39.44737 | 24.74890 | 34024 ft | 425 kts | 341° |
| 2026-04-24 14:09 | 39.50272 | 24.72207 | 34023 ft | 425 kts | 341° |
| 2026-04-24 14:09 | 39.55805 | 24.69520 | 34022 ft | 425 kts | 341° |
| 2026-04-24 14:10 | 39.61335 | 24.66834 | 34023 ft | 424 kts | 341° |
| 2026-04-24 14:10 | 39.66865 | 24.64150 | 34021 ft | 424 kts | 341° |
| 2026-04-24 14:11 | 39.72394 | 24.61455 | 34026 ft | 424 kts | 341° |
| 2026-04-24 14:12 | 39.80684 | 24.57407 | 34020 ft | 424 kts | 341° |
| 2026-04-24 14:12 | 39.86206 | 24.54720 | 34019 ft | 424 kts | 342° |
| 2026-04-24 14:13 | 39.91725 | 24.52018 | 34021 ft | 424 kts | 342° |
| 2026-04-24 14:13 | 39.97239 | 24.49307 | 34013 ft | 423 kts | 342° |
| 2026-04-24 14:14 | 40.02749 | 24.46592 | 34015 ft | 423 kts | 342° |
| 2026-04-24 14:14 | 40.11011 | 24.42511 | 34013 ft | 423 kts | 342° |
| 2026-04-24 14:15 | 40.16511 | 24.39800 | 34010 ft | 422 kts | 342° |
| 2026-04-24 14:15 | 40.22006 | 24.37088 | 34010 ft | 422 kts | 342° |
| 2026-04-24 14:16 | 40.27505 | 24.34367 | 34009 ft | 422 kts | 343° |
| 2026-04-24 14:17 | 40.35738 | 24.30280 | 34007 ft | 422 kts | 343° |
| 2026-04-24 14:17 | 40.43969 | 24.26187 | 34003 ft | 421 kts | 343° |
| 2026-04-24 14:18 | 40.49442 | 24.23455 | 34002 ft | 421 kts | 343° |
| 2026-04-24 14:18 | 40.54906 | 24.20719 | 33997 ft | 420 kts | 343° |
| 2026-04-24 14:19 | 40.60358 | 24.17990 | 33997 ft | 419 kts | 343° |
| 2026-04-24 14:19 | 40.65810 | 24.15253 | 34236 ft | 419 kts | 343° |
| 2026-04-24 14:20 | 40.68531 | 24.13881 | 34536 ft | 418 kts | 343° |
| 2026-04-24 14:20 | 40.71247 | 24.12513 | 34817 ft | 418 kts | 343° |
| 2026-04-24 14:20 | 40.73964 | 24.11146 | 35065 ft | 418 kts | 343° |
| 2026-04-24 14:20 | 40.76680 | 24.09779 | 35322 ft | 418 kts | 343° |
| 2026-04-24 14:21 | 40.79396 | 24.08413 | 35575 ft | 418 kts | 342° |
| 2026-04-24 14:21 | 40.82117 | 24.07046 | 35805 ft | 418 kts | 342° |
| 2026-04-24 14:21 | 40.84836 | 24.05678 | 35950 ft | 419 kts | 342° |
| 2026-04-24 14:21 | 40.87570 | 24.04299 | 35985 ft | 423 kts | 342° |
| 2026-04-24 14:22 | 40.93083 | 24.01516 | 35977 ft | 425 kts | 342° |
| 2026-04-24 14:23 | 41.01356 | 23.97307 | 35975 ft | 425 kts | 342° |
| 2026-04-24 14:23 | 41.06875 | 23.94499 | 35971 ft | 425 kts | 342° |
| 2026-04-24 14:24 | 41.12357 | 23.91714 | 35968 ft | 425 kts | 343° |
| 2026-04-24 14:24 | 41.17881 | 23.88903 | 35962 ft | 425 kts | 343° |
| 2026-04-24 14:25 | 41.23398 | 23.86088 | 35965 ft | 425 kts | 343° |
| 2026-04-24 14:25 | 41.28946 | 23.83245 | 35961 ft | 425 kts | 343° |
| 2026-04-24 14:26 | 41.34456 | 23.80414 | 35960 ft | 425 kts | 343° |
| 2026-04-24 14:26 | 41.39983 | 23.77648 | 35959 ft | 422 kts | 348° |
| 2026-04-24 14:27 | 41.45688 | 23.76070 | 35961 ft | 418 kts | 353° |
| 2026-04-24 14:27 | 41.51400 | 23.74632 | 35964 ft | 418 kts | 353° |
| 2026-04-24 14:28 | 41.57073 | 23.73196 | 35971 ft | 418 kts | 353° |
| 2026-04-24 14:28 | 41.62775 | 23.71742 | 35968 ft | 417 kts | 353° |
| 2026-04-24 14:29 | 41.68469 | 23.70288 | 35968 ft | 416 kts | 353° |
| 2026-04-24 14:29 | 41.74158 | 23.68839 | 35973 ft | 416 kts | 353° |
| 2026-04-24 14:30 | 41.78915 | 23.67627 | 35973 ft | 415 kts | 353° |
| 2026-04-24 14:30 | 41.85507 | 23.65933 | 35974 ft | 415 kts | 353° |
| 2026-04-24 14:31 | 41.91175 | 23.64472 | 35974 ft | 415 kts | 353° |
| 2026-04-24 14:31 | 41.96844 | 23.63016 | 35975 ft | 415 kts | 353° |
| 2026-04-24 14:32 | 42.02510 | 23.61562 | 35980 ft | 415 kts | 353° |
| 2026-04-24 14:32 | 42.08174 | 23.60100 | 35976 ft | 414 kts | 353° |
| 2026-04-24 14:33 | 42.13836 | 23.58639 | 35970 ft | 414 kts | 353° |
| 2026-04-24 14:33 | 42.19491 | 23.57167 | 35971 ft | 414 kts | 353° |
| 2026-04-24 14:34 | 42.25149 | 23.55707 | 35979 ft | 414 kts | 353° |
| 2026-04-24 14:34 | 42.30810 | 23.54245 | 35981 ft | 414 kts | 353° |
| 2026-04-24 14:35 | 42.36464 | 23.52773 | 35980 ft | 414 kts | 353° |
| 2026-04-24 14:35 | 42.42124 | 23.51292 | 35980 ft | 414 kts | 353° |
| 2026-04-24 14:36 | 42.47774 | 23.49811 | 35984 ft | 414 kts | 353° |
| 2026-04-24 14:36 | 42.53428 | 23.48332 | 35996 ft | 414 kts | 353° |
| 2026-04-24 14:37 | 42.59072 | 23.46850 | 35996 ft | 413 kts | 353° |
| 2026-04-24 14:37 | 42.64714 | 23.45369 | 35990 ft | 412 kts | 353° |
| 2026-04-24 14:38 | 42.70345 | 23.43893 | 35990 ft | 412 kts | 353° |
| 2026-04-24 14:38 | 42.75965 | 23.42410 | 35990 ft | 411 kts | 353° |
| 2026-04-24 14:39 | 42.81573 | 23.40929 | 35988 ft | 410 kts | 353° |
| 2026-04-24 14:39 | 42.87180 | 23.39448 | 35983 ft | 410 kts | 353° |
| 2026-04-24 14:40 | 42.92779 | 23.37969 | 35994 ft | 410 kts | 353° |
| 2026-04-24 14:40 | 42.98377 | 23.36480 | 35989 ft | 409 kts | 353° |
| 2026-04-24 14:41 | 43.03964 | 23.34987 | 35989 ft | 409 kts | 353° |
| 2026-04-24 14:41 | 43.09549 | 23.33492 | 35987 ft | 409 kts | 353° |
| 2026-04-24 14:42 | 43.14180 | 23.32251 | 35987 ft | 408 kts | 353° |
| 2026-04-24 14:42 | 43.20693 | 23.30509 | 35982 ft | 408 kts | 353° |
| 2026-04-24 14:43 | 43.26256 | 23.29020 | 35984 ft | 407 kts | 353° |
| 2026-04-24 14:43 | 43.30875 | 23.27777 | 35981 ft | 407 kts | 353° |
| 2026-04-24 14:44 | 43.36429 | 23.26277 | 35977 ft | 406 kts | 352° |
| 2026-04-24 14:44 | 43.41978 | 23.24783 | 35976 ft | 406 kts | 353° |
| 2026-04-24 14:45 | 43.47525 | 23.23296 | 35976 ft | 406 kts | 352° |
| 2026-04-24 14:45 | 43.53068 | 23.21801 | 35973 ft | 406 kts | 352° |
| 2026-04-24 14:46 | 43.58607 | 23.20297 | 35977 ft | 406 kts | 352° |
| 2026-04-24 14:46 | 43.64144 | 23.18788 | 35974 ft | 405 kts | 352° |
| 2026-04-24 14:47 | 43.69676 | 23.17284 | 35975 ft | 405 kts | 352° |
| 2026-04-24 14:47 | 43.75200 | 23.15781 | 35973 ft | 404 kts | 352° |
| 2026-04-24 14:48 | 43.80718 | 23.14276 | 35972 ft | 404 kts | 352° |
| 2026-04-24 14:48 | 43.86227 | 23.12766 | 35966 ft | 404 kts | 352° |
| 2026-04-24 14:49 | 43.91737 | 23.11262 | 35966 ft | 403 kts | 352° |
| 2026-04-24 14:49 | 43.97243 | 23.09744 | 35962 ft | 403 kts | 352° |
| 2026-04-24 14:50 | 44.02746 | 23.08223 | 35957 ft | 403 kts | 352° |
| 2026-04-24 14:50 | 44.08250 | 23.06707 | 35954 ft | 403 kts | 352° |
| 2026-04-24 14:51 | 44.13755 | 23.05188 | 35949 ft | 403 kts | 352° |
| 2026-04-24 14:51 | 44.19265 | 23.03663 | 35948 ft | 404 kts | 352° |
| 2026-04-24 14:52 | 44.24769 | 23.02138 | 35950 ft | 404 kts | 352° |
| 2026-04-24 14:52 | 44.30279 | 23.00611 | 35948 ft | 404 kts | 352° |
| 2026-04-24 14:53 | 44.35787 | 22.99083 | 35949 ft | 403 kts | 352° |
| 2026-04-24 14:53 | 44.41297 | 22.97544 | 35946 ft | 403 kts | 352° |
| 2026-04-24 14:54 | 44.46793 | 22.95999 | 35946 ft | 403 kts | 352° |
| 2026-04-24 14:54 | 44.52296 | 22.94462 | 35949 ft | 403 kts | 351° |
| 2026-04-24 14:55 | 44.56861 | 22.93181 | 35951 ft | 402 kts | 351° |
| 2026-04-24 14:55 | 44.63280 | 22.91371 | 35949 ft | 402 kts | 351° |
| 2026-04-24 14:56 | 44.68758 | 22.89826 | 35949 ft | 402 kts | 351° |
| 2026-04-24 14:56 | 44.74239 | 22.88284 | 35948 ft | 401 kts | 351° |
| 2026-04-24 14:57 | 44.79714 | 22.86732 | 35952 ft | 401 kts | 351° |
| 2026-04-24 14:57 | 44.85191 | 22.85184 | 35949 ft | 401 kts | 351° |
| 2026-04-24 14:58 | 44.90633 | 22.83390 | 35952 ft | 403 kts | 347° |
| 2026-04-24 14:58 | 44.96017 | 22.81183 | 35955 ft | 403 kts | 346° |
| 2026-04-24 14:59 | 45.01400 | 22.78921 | 35958 ft | 403 kts | 347° |
| 2026-04-24 14:59 | 45.06796 | 22.76740 | 35967 ft | 403 kts | 347° |
| 2026-04-24 15:00 | 45.12205 | 22.74595 | 35975 ft | 404 kts | 347° |
| 2026-04-24 15:00 | 45.17610 | 22.72441 | 35986 ft | 403 kts | 347° |
| 2026-04-24 15:01 | 45.23010 | 22.70266 | 35992 ft | 403 kts | 347° |
| 2026-04-24 15:01 | 45.28397 | 22.68085 | 35998 ft | 402 kts | 347° |
| 2026-04-24 15:02 | 45.33771 | 22.65919 | 36011 ft | 402 kts | 347° |
| 2026-04-24 15:02 | 45.39151 | 22.63748 | 36018 ft | 401 kts | 347° |
| 2026-04-24 15:03 | 45.44523 | 22.61583 | 36013 ft | 401 kts | 347° |
| 2026-04-24 15:03 | 45.49879 | 22.59401 | 36012 ft | 400 kts | 347° |
| 2026-04-24 15:04 | 45.55227 | 22.57224 | 36008 ft | 400 kts | 347° |
| 2026-04-24 15:04 | 45.60574 | 22.55041 | 36009 ft | 400 kts | 347° |
| 2026-04-24 15:05 | 45.65915 | 22.52858 | 36008 ft | 399 kts | 347° |
| 2026-04-24 15:05 | 45.71258 | 22.50670 | 36007 ft | 399 kts | 347° |
| 2026-04-24 15:06 | 45.76593 | 22.48481 | 36005 ft | 399 kts | 347° |
| 2026-04-24 15:06 | 45.81931 | 22.46296 | 36010 ft | 399 kts | 347° |
| 2026-04-24 15:07 | 45.87264 | 22.44111 | 36007 ft | 399 kts | 347° |
| 2026-04-24 15:07 | 45.92590 | 22.41914 | 36011 ft | 398 kts | 347° |
| 2026-04-24 15:08 | 45.97916 | 22.39705 | 36011 ft | 398 kts | 346° |
| 2026-04-24 15:08 | 46.03237 | 22.37499 | 36013 ft | 398 kts | 346° |
| 2026-04-24 15:09 | 46.08554 | 22.35302 | 36014 ft | 397 kts | 346° |
| 2026-04-24 15:09 | 46.13867 | 22.33098 | 36010 ft | 397 kts | 346° |
| 2026-04-24 15:10 | 46.19134 | 22.30901 | 36013 ft | 397 kts | 346° |
| 2026-04-24 15:10 | 46.24475 | 22.28674 | 36015 ft | 396 kts | 346° |
| 2026-04-24 15:11 | 46.29769 | 22.26456 | 36014 ft | 396 kts | 346° |
| 2026-04-24 15:11 | 46.35063 | 22.24248 | 36014 ft | 396 kts | 346° |
| 2026-04-24 15:12 | 46.40352 | 22.22029 | 36015 ft | 396 kts | 346° |
| 2026-04-24 15:12 | 46.48280 | 22.18681 | 36016 ft | 395 kts | 346° |
| 2026-04-24 15:13 | 46.53567 | 22.16448 | 36018 ft | 395 kts | 346° |
| 2026-04-24 15:13 | 46.58850 | 22.14223 | 36019 ft | 395 kts | 346° |
| 2026-04-24 15:14 | 46.64133 | 22.11983 | 36018 ft | 395 kts | 346° |
| 2026-04-24 15:14 | 46.69405 | 22.09738 | 36019 ft | 395 kts | 346° |
| 2026-04-24 15:15 | 46.74644 | 22.07511 | 36015 ft | 395 kts | 346° |
| 2026-04-24 15:15 | 46.79908 | 22.05272 | 36016 ft | 394 kts | 346° |
| 2026-04-24 15:16 | 46.85179 | 22.03017 | 36017 ft | 394 kts | 346° |
| 2026-04-24 15:16 | 46.90442 | 22.00770 | 36020 ft | 394 kts | 346° |
| 2026-04-24 15:17 | 46.95734 | 21.98496 | 36021 ft | 394 kts | 345° |
| 2026-04-24 15:17 | 47.00984 | 21.96227 | 36023 ft | 393 kts | 345° |
| 2026-04-24 15:18 | 47.06230 | 21.93964 | 36023 ft | 393 kts | 345° |
| 2026-04-24 15:18 | 47.11472 | 21.91717 | 36023 ft | 392 kts | 345° |
| 2026-04-24 15:19 | 47.16707 | 21.89456 | 36019 ft | 392 kts | 345° |
| 2026-04-24 15:19 | 47.21938 | 21.87193 | 36019 ft | 392 kts | 345° |
| 2026-04-24 15:20 | 47.27162 | 21.84928 | 36016 ft | 391 kts | 345° |
| 2026-04-24 15:20 | 47.32382 | 21.82651 | 36018 ft | 391 kts | 345° |
| 2026-04-24 15:21 | 47.37593 | 21.80372 | 36021 ft | 390 kts | 345° |
| 2026-04-24 15:21 | 47.42798 | 21.78099 | 36021 ft | 390 kts | 345° |
| 2026-04-24 15:22 | 47.48000 | 21.75824 | 36022 ft | 390 kts | 345° |
| 2026-04-24 15:23 | 47.55790 | 21.72403 | 36018 ft | 389 kts | 345° |
| 2026-04-24 15:23 | 47.63535 | 21.68997 | 36016 ft | 389 kts | 345° |
| 2026-04-24 15:25 | 47.75643 | 21.63629 | 36017 ft | 388 kts | 345° |
| 2026-04-24 15:26 | 47.88572 | 21.57912 | 36018 ft | 387 kts | 345° |
| 2026-04-24 15:27 | 48.04041 | 21.50993 | 36016 ft | 387 kts | 345° |
| 2026-04-24 15:29 | 48.19488 | 21.44050 | 36012 ft | 386 kts | 344° |
| 2026-04-24 15:31 | 48.37440 | 21.35915 | 36010 ft | 386 kts | 344° |
| 2026-04-24 15:33 | 48.57989 | 21.26516 | 36019 ft | 385 kts | 343° |
| 2026-04-24 15:34 | 48.70730 | 21.20529 | 36020 ft | 384 kts | 343° |
| 2026-04-24 15:35 | 48.83486 | 21.14542 | 36018 ft | 384 kts | 343° |
| 2026-04-24 15:36 | 48.88585 | 21.12142 | 36014 ft | 384 kts | 343° |
| 2026-04-24 15:36 | 48.96224 | 21.08521 | 36012 ft | 383 kts | 343° |
| 2026-04-24 15:37 | 49.01347 | 21.06078 | 36009 ft | 383 kts | 343° |
| 2026-04-24 15:37 | 49.06433 | 21.03659 | 36011 ft | 383 kts | 343° |
| 2026-04-24 15:38 | 49.11514 | 21.01243 | 36012 ft | 383 kts | 343° |
| 2026-04-24 15:38 | 49.16601 | 20.98810 | 36013 ft | 382 kts | 343° |
| 2026-04-24 15:39 | 49.21676 | 20.96374 | 36014 ft | 382 kts | 343° |
| 2026-04-24 15:39 | 49.26713 | 20.93960 | 36018 ft | 382 kts | 343° |
| 2026-04-24 15:40 | 49.31816 | 20.91511 | 36017 ft | 381 kts | 343° |
| 2026-04-24 15:40 | 49.36872 | 20.89065 | 36023 ft | 381 kts | 343° |
| 2026-04-24 15:41 | 49.41899 | 20.86639 | 36022 ft | 381 kts | 342° |
| 2026-04-24 15:41 | 49.46952 | 20.84201 | 36025 ft | 381 kts | 342° |
| 2026-04-24 15:42 | 49.52000 | 20.81760 | 36021 ft | 380 kts | 342° |
| 2026-04-24 15:42 | 49.57046 | 20.79305 | 36019 ft | 380 kts | 342° |
| 2026-04-24 15:43 | 49.62081 | 20.76848 | 36022 ft | 380 kts | 342° |
| 2026-04-24 15:43 | 49.67117 | 20.74390 | 36021 ft | 380 kts | 342° |
| 2026-04-24 15:44 | 49.72153 | 20.71920 | 36022 ft | 379 kts | 342° |
| 2026-04-24 15:44 | 49.77184 | 20.69449 | 36019 ft | 379 kts | 342° |
| 2026-04-24 15:45 | 49.82212 | 20.66983 | 36016 ft | 379 kts | 342° |
| 2026-04-24 15:45 | 49.87240 | 20.64515 | 36015 ft | 379 kts | 342° |
| 2026-04-24 15:46 | 49.92264 | 20.62041 | 36011 ft | 379 kts | 342° |
| 2026-04-24 15:46 | 49.97286 | 20.59552 | 36011 ft | 379 kts | 342° |
| 2026-04-24 15:47 | 50.02308 | 20.57063 | 36014 ft | 379 kts | 342° |
| 2026-04-24 15:47 | 50.07328 | 20.54572 | 36012 ft | 379 kts | 341° |
| 2026-04-24 15:48 | 50.12338 | 20.52072 | 36009 ft | 378 kts | 341° |
| 2026-04-24 15:48 | 50.17358 | 20.49563 | 36010 ft | 379 kts | 341° |
| 2026-04-24 15:49 | 50.22372 | 20.47067 | 36007 ft | 378 kts | 341° |
| 2026-04-24 15:49 | 50.27388 | 20.44558 | 36008 ft | 378 kts | 341° |
| 2026-04-24 15:50 | 50.32402 | 20.42039 | 36009 ft | 378 kts | 341° |
| 2026-04-24 15:50 | 50.37411 | 20.39509 | 36008 ft | 378 kts | 341° |
| 2026-04-24 15:51 | 50.42419 | 20.36972 | 36008 ft | 378 kts | 341° |
| 2026-04-24 15:51 | 50.47422 | 20.34447 | 36008 ft | 378 kts | 341° |
| 2026-04-24 15:52 | 50.52430 | 20.31905 | 36007 ft | 378 kts | 341° |
| 2026-04-24 15:52 | 50.57433 | 20.29372 | 36004 ft | 378 kts | 341° |
| 2026-04-24 15:53 | 50.62432 | 20.26835 | 36005 ft | 378 kts | 341° |
| 2026-04-24 15:53 | 50.67428 | 20.24280 | 36005 ft | 378 kts | 340° |
| 2026-04-24 15:54 | 50.72432 | 20.21724 | 36005 ft | 377 kts | 340° |
| 2026-04-24 15:54 | 50.77427 | 20.19165 | 36005 ft | 377 kts | 340° |
| 2026-04-24 15:55 | 50.82418 | 20.16594 | 36005 ft | 377 kts | 340° |
| 2026-04-24 15:55 | 50.87412 | 20.14021 | 36008 ft | 377 kts | 340° |
| 2026-04-24 15:56 | 50.92401 | 20.11444 | 36002 ft | 377 kts | 340° |
| 2026-04-24 15:56 | 50.97394 | 20.08869 | 36002 ft | 377 kts | 340° |
| 2026-04-24 15:57 | 51.02382 | 20.06283 | 35999 ft | 377 kts | 340° |
| 2026-04-24 15:57 | 51.07367 | 20.03695 | 35998 ft | 377 kts | 340° |
| 2026-04-24 15:58 | 51.12357 | 20.01108 | 36000 ft | 377 kts | 340° |
| 2026-04-24 15:58 | 51.17332 | 19.98505 | 36001 ft | 377 kts | 340° |
| 2026-04-24 15:59 | 51.22358 | 19.95877 | 35997 ft | 377 kts | 340° |
| 2026-04-24 15:59 | 51.27336 | 19.93273 | 35995 ft | 377 kts | 340° |
| 2026-04-24 16:00 | 51.32313 | 19.90654 | 35996 ft | 377 kts | 339° |
| 2026-04-24 16:00 | 51.37289 | 19.88012 | 35994 ft | 376 kts | 339° |
| 2026-04-24 16:01 | 51.42218 | 19.85209 | 35984 ft | 376 kts | 338° |
| 2026-04-24 16:01 | 51.47133 | 19.82334 | 35986 ft | 376 kts | 338° |
| 2026-04-24 16:02 | 51.52052 | 19.79473 | 35998 ft | 376 kts | 338° |
| 2026-04-24 16:02 | 51.56970 | 19.76637 | 36003 ft | 376 kts | 338° |
| 2026-04-24 16:03 | 51.61886 | 19.73802 | 36004 ft | 376 kts | 338° |
| 2026-04-24 16:03 | 51.66811 | 19.70950 | 36006 ft | 376 kts | 338° |
| 2026-04-24 16:04 | 51.71726 | 19.68090 | 36010 ft | 376 kts | 338° |
| 2026-04-24 16:04 | 51.75813 | 19.65706 | 36013 ft | 376 kts | 338° |
| 2026-04-24 16:05 | 51.83182 | 19.61398 | 36009 ft | 376 kts | 338° |
| 2026-04-24 16:06 | 51.90555 | 19.57083 | 36005 ft | 376 kts | 338° |
| 2026-04-24 16:07 | 51.97921 | 19.52758 | 35992 ft | 375 kts | 338° |
| 2026-04-24 16:07 | 52.05288 | 19.48409 | 35979 ft | 375 kts | 338° |
| 2026-04-24 16:08 | 52.12653 | 19.44048 | 35967 ft | 375 kts | 338° |
| 2026-04-24 16:09 | 52.20015 | 19.39675 | 35970 ft | 375 kts | 338° |
| 2026-04-24 16:09 | 52.24918 | 19.36743 | 35970 ft | 375 kts | 338° |
| 2026-04-24 16:11 | 52.37181 | 19.29389 | 35969 ft | 375 kts | 338° |
| 2026-04-24 16:11 | 52.42086 | 19.26443 | 35976 ft | 375 kts | 338° |
| 2026-04-24 16:12 | 52.49441 | 19.22013 | 35971 ft | 375 kts | 338° |
| 2026-04-24 16:13 | 52.56797 | 19.17572 | 35971 ft | 375 kts | 338° |
| 2026-04-24 16:14 | 52.66591 | 19.11609 | 35968 ft | 375 kts | 338° |
| 2026-04-24 16:14 | 52.73938 | 19.07142 | 35962 ft | 375 kts | 338° |
| 2026-04-24 16:15 | 52.81280 | 19.02654 | 35963 ft | 375 kts | 338° |
| 2026-04-24 16:16 | 52.88618 | 18.98135 | 35958 ft | 375 kts | 338° |
| 2026-04-24 16:17 | 53.00846 | 18.90578 | 35957 ft | 375 kts | 339° |
| 2026-04-24 16:18 | 53.10593 | 18.84519 | 35956 ft | 375 kts | 338° |
| 2026-04-24 16:19 | 53.17929 | 18.79944 | 35960 ft | 376 kts | 339° |
| 2026-04-24 16:20 | 53.25275 | 18.75354 | 35961 ft | 376 kts | 338° |
| 2026-04-24 16:20 | 53.32622 | 18.70740 | 35952 ft | 376 kts | 339° |
| 2026-04-24 16:21 | 53.39977 | 18.66109 | 35956 ft | 377 kts | 339° |
| 2026-04-24 16:22 | 53.44885 | 18.63001 | 35960 ft | 377 kts | 339° |
| 2026-04-24 16:22 | 53.52243 | 18.58337 | 35958 ft | 377 kts | 339° |
| 2026-04-24 16:23 | 53.57150 | 18.55209 | 35960 ft | 377 kts | 339° |
| 2026-04-24 16:24 | 53.64512 | 18.50510 | 35967 ft | 377 kts | 339° |
| 2026-04-24 16:24 | 53.69427 | 18.47362 | 35963 ft | 378 kts | 339° |
| 2026-04-24 16:25 | 53.74325 | 18.44221 | 35968 ft | 378 kts | 339° |
| 2026-04-24 16:25 | 53.79248 | 18.41055 | 35965 ft | 378 kts | 339° |
| 2026-04-24 16:26 | 53.86618 | 18.36294 | 35965 ft | 378 kts | 339° |
| 2026-04-24 16:27 | 53.93986 | 18.31517 | 35966 ft | 378 kts | 339° |
| 2026-04-24 16:27 | 53.98892 | 18.28336 | 35970 ft | 378 kts | 339° |
| 2026-04-24 16:28 | 54.03800 | 18.25132 | 35974 ft | 378 kts | 338° |
| 2026-04-24 16:28 | 54.11153 | 18.20322 | 35978 ft | 377 kts | 339° |
| 2026-04-24 16:29 | 54.16055 | 18.17111 | 35970 ft | 377 kts | 339° |
| 2026-04-24 16:30 | 54.25849 | 18.10662 | 35985 ft | 377 kts | 339° |
| 2026-04-24 16:30 | 54.30744 | 18.07432 | 35982 ft | 377 kts | 338° |
| 2026-04-24 16:31 | 54.35635 | 18.04196 | 35981 ft | 377 kts | 339° |
| 2026-04-24 16:31 | 54.40519 | 18.00947 | 35984 ft | 376 kts | 338° |
| 2026-04-24 16:32 | 54.45399 | 17.97687 | 35989 ft | 376 kts | 338° |
| 2026-04-24 16:32 | 54.50280 | 17.94423 | 35981 ft | 376 kts | 338° |
| 2026-04-24 16:33 | 54.55156 | 17.91163 | 35991 ft | 376 kts | 338° |
| 2026-04-24 16:33 | 54.60034 | 17.87898 | 35992 ft | 376 kts | 338° |
| 2026-04-24 16:34 | 54.64905 | 17.84620 | 35990 ft | 376 kts | 338° |
| 2026-04-24 16:34 | 54.69772 | 17.81330 | 35997 ft | 376 kts | 338° |
| 2026-04-24 16:35 | 54.74637 | 17.78041 | 35987 ft | 375 kts | 338° |
| 2026-04-24 16:35 | 54.79506 | 17.74750 | 35996 ft | 375 kts | 338° |
| 2026-04-24 16:36 | 54.84363 | 17.71449 | 35993 ft | 375 kts | 338° |
| 2026-04-24 16:36 | 54.89220 | 17.68139 | 36000 ft | 375 kts | 338° |
| 2026-04-24 16:37 | 54.94072 | 17.64823 | 35996 ft | 375 kts | 338° |
| 2026-04-24 16:37 | 54.98920 | 17.61497 | 35991 ft | 374 kts | 338° |
| 2026-04-24 16:38 | 55.03764 | 17.58162 | 35993 ft | 374 kts | 338° |
| 2026-04-24 16:38 | 55.08607 | 17.54826 | 35989 ft | 374 kts | 338° |
| 2026-04-24 16:39 | 55.13450 | 17.51485 | 35986 ft | 374 kts | 338° |
| 2026-04-24 16:39 | 55.18285 | 17.48143 | 35990 ft | 374 kts | 338° |
| 2026-04-24 16:40 | 55.23122 | 17.44784 | 35985 ft | 374 kts | 338° |
| 2026-04-24 16:40 | 55.27946 | 17.41415 | 35989 ft | 373 kts | 338° |
| 2026-04-24 16:41 | 55.32773 | 17.38053 | 35984 ft | 373 kts | 338° |
| 2026-04-24 16:41 | 55.37594 | 17.34680 | 35986 ft | 373 kts | 338° |
| 2026-04-24 16:42 | 55.42415 | 17.31297 | 35982 ft | 373 kts | 338° |
| 2026-04-24 16:42 | 55.47231 | 17.27912 | 35984 ft | 373 kts | 338° |
| 2026-04-24 16:43 | 55.52045 | 17.24518 | 35978 ft | 372 kts | 338° |
| 2026-04-24 16:43 | 55.56856 | 17.21116 | 35983 ft | 372 kts | 338° |
| 2026-04-24 16:44 | 55.61662 | 17.17707 | 35978 ft | 372 kts | 338° |
| 2026-04-24 16:44 | 55.66475 | 17.14364 | 35979 ft | 372 kts | 339° |
| 2026-04-24 16:45 | 55.71331 | 17.11212 | 35978 ft | 371 kts | 340° |
| 2026-04-24 16:45 | 55.76187 | 17.08085 | 35979 ft | 371 kts | 340° |
| 2026-04-24 16:46 | 55.81032 | 17.04927 | 35974 ft | 371 kts | 339° |
| 2026-04-24 16:46 | 55.85087 | 17.02256 | 35976 ft | 371 kts | 339° |
| 2026-04-24 16:47 | 55.89924 | 16.99065 | 35968 ft | 371 kts | 339° |
| 2026-04-24 16:47 | 55.94753 | 16.95866 | 35973 ft | 370 kts | 339° |
| 2026-04-24 16:48 | 55.99583 | 16.92664 | 35965 ft | 370 kts | 339° |
| 2026-04-24 16:48 | 56.04413 | 16.89456 | 35970 ft | 370 kts | 339° |
| 2026-04-24 16:49 | 56.09237 | 16.86245 | 35967 ft | 370 kts | 339° |
| 2026-04-24 16:49 | 56.14060 | 16.83020 | 35967 ft | 370 kts | 339° |
| 2026-04-24 16:50 | 56.18881 | 16.79789 | 35961 ft | 370 kts | 339° |
| 2026-04-24 16:50 | 56.23698 | 16.76559 | 35962 ft | 370 kts | 339° |
| 2026-04-24 16:51 | 56.28512 | 16.73311 | 35957 ft | 369 kts | 339° |
| 2026-04-24 16:51 | 56.33325 | 16.70057 | 35962 ft | 369 kts | 339° |
| 2026-04-24 16:52 | 56.38135 | 16.66793 | 35958 ft | 369 kts | 339° |
| 2026-04-24 16:52 | 56.42943 | 16.63531 | 35959 ft | 369 kts | 339° |
| 2026-04-24 16:53 | 56.47749 | 16.60264 | 35949 ft | 369 kts | 339° |
| 2026-04-24 16:53 | 56.52559 | 16.56979 | 35951 ft | 369 kts | 339° |
| 2026-04-24 16:54 | 56.57364 | 16.53686 | 35944 ft | 369 kts | 339° |
| 2026-04-24 16:54 | 56.62167 | 16.50387 | 35944 ft | 369 kts | 339° |
| 2026-04-24 16:55 | 56.66975 | 16.47077 | 35937 ft | 370 kts | 339° |
| 2026-04-24 16:55 | 56.71783 | 16.43754 | 35940 ft | 370 kts | 339° |
| 2026-04-24 16:56 | 56.76592 | 16.40430 | 35935 ft | 370 kts | 339° |
| 2026-04-24 16:56 | 56.81402 | 16.37095 | 35940 ft | 370 kts | 339° |
| 2026-04-24 16:57 | 56.86212 | 16.33740 | 35932 ft | 370 kts | 339° |
| 2026-04-24 16:57 | 56.91031 | 16.30375 | 35934 ft | 371 kts | 339° |
| 2026-04-24 16:58 | 56.95855 | 16.27000 | 35920 ft | 371 kts | 339° |
| 2026-04-24 16:58 | 57.00683 | 16.23610 | 35916 ft | 372 kts | 339° |
| 2026-04-24 16:59 | 57.05485 | 16.20238 | 35911 ft | 372 kts | 339° |
| 2026-04-24 17:00 | 57.12776 | 16.15095 | 35912 ft | 373 kts | 339° |
| 2026-04-24 17:00 | 57.20005 | 16.09971 | 35912 ft | 373 kts | 339° |
| 2026-04-24 17:01 | 57.27257 | 16.04786 | 35916 ft | 372 kts | 339° |
| 2026-04-24 17:02 | 57.34491 | 15.99620 | 35935 ft | 372 kts | 339° |
| 2026-04-24 17:02 | 57.39311 | 15.96161 | 35918 ft | 372 kts | 339° |
| 2026-04-24 17:03 | 57.46555 | 15.90945 | 35925 ft | 372 kts | 339° |
| 2026-04-24 17:04 | 57.51412 | 15.87431 | 35922 ft | 373 kts | 339° |
| 2026-04-24 17:04 | 57.58667 | 15.82166 | 35929 ft | 373 kts | 339° |
| 2026-04-24 17:05 | 57.63476 | 15.78672 | 35937 ft | 373 kts | 339° |
| 2026-04-24 17:06 | 57.70732 | 15.73364 | 35926 ft | 374 kts | 339° |
| 2026-04-24 17:06 | 57.78007 | 15.68023 | 35930 ft | 374 kts | 339° |
| 2026-04-24 17:07 | 57.82858 | 15.64455 | 35947 ft | 375 kts | 339° |
| 2026-04-24 17:08 | 57.92599 | 15.57242 | 35940 ft | 375 kts | 339° |
| 2026-04-24 17:08 | 57.97430 | 15.53669 | 35925 ft | 376 kts | 339° |
| 2026-04-24 17:09 | 58.07164 | 15.46410 | 35924 ft | 376 kts | 339° |
| 2026-04-24 17:10 | 58.16904 | 15.39066 | 35929 ft | 377 kts | 338° |
| 2026-04-24 17:12 | 58.36420 | 15.24299 | 35937 ft | 378 kts | 338° |